Terminal Aerodrome Forecast
Issued by NWS

Home | Current Version | Previous Version | Text Only | Print | Product List | Glossary On
Versions: 1 2 3 4 5 6 7 8 9 10 11 12 13
000
FTUS46 KLOX 262300
TAFSBA
TAF
KSBA 262331Z 2700/2724 16007KT P6SM SCT250
     FM270200 32008KT P6SM SCT250
     FM270800 VRB03KT P6SM SCT250
     FM271800 16006KT P6SM BKN100
     FM272100 28014G20KT P6SM BKN080=

USA.gov is the U.S. government's official web portal to all federal, state and local government web resources and services.